createdAt,value
2022-12-12T00:02:06.581Z,9.30
2022-12-12T00:04:33.300Z,9.18
2022-12-12T00:07:00.091Z,9.25
2022-12-12T00:09:26.827Z,9.57
2022-12-12T00:11:53.536Z,10.15
2022-12-12T00:14:20.303Z,10.13
2022-12-12T00:16:47.049Z,8.75
2022-12-12T00:19:13.759Z,9.65
2022-12-12T00:21:40.518Z,10.53
2022-12-12T00:24:07.705Z,10.23
2022-12-12T00:26:35.655Z,10.13
2022-12-12T00:29:05.091Z,9.32
2022-12-12T00:31:32.427Z,10.70
2022-12-12T00:33:59.432Z,9.07
2022-12-12T00:36:29.187Z,8.85
2022-12-12T00:38:56.549Z,8.85
2022-12-12T00:41:23.987Z,8.93
2022-12-12T00:43:51.105Z,9.10
2022-12-12T00:46:20.832Z,10.93
2022-12-12T00:48:47.989Z,9.63
2022-12-12T00:51:18.177Z,9.73
2022-12-12T00:53:45.253Z,9.18
2022-12-12T00:56:12.016Z,9.70
2022-12-12T00:58:38.740Z,10.83
2022-12-12T01:01:10.607Z,9.70
2022-12-12T01:03:39.062Z,10.15
2022-12-12T01:06:06.811Z,9.90
2022-12-12T01:08:33.680Z,9.38
2022-12-12T01:11:00.546Z,9.52
2022-12-12T01:13:28.238Z,9.73
2022-12-12T01:15:55.113Z,11.10
2022-12-12T01:18:22.008Z,9.57
2022-12-12T01:20:48.870Z,10.70
2022-12-12T01:23:15.863Z,10.00
2022-12-12T01:25:42.704Z,9.90
2022-12-12T01:28:09.900Z,10.35
2022-12-12T01:30:37.223Z,10.43
2022-12-12T01:33:04.217Z,10.00
2022-12-12T01:35:33.253Z,10.63
2022-12-12T01:38:00.164Z,9.93
2022-12-12T01:40:29.351Z,9.23
2022-12-12T01:42:56.115Z,8.47
2022-12-12T01:45:53.995Z,9.07
2022-12-12T01:48:23.908Z,9.10
2022-12-12T01:50:51.524Z,9.40
2022-12-12T01:53:20.105Z,8.87
2022-12-12T01:55:49.493Z,9.10
2022-12-12T01:58:16.917Z,9.27
2022-12-12T02:00:44.412Z,8.70
2022-12-12T02:03:11.495Z,9.40
2022-12-12T02:05:51.597Z,9.60
2022-12-12T02:08:21.094Z,7.67
2022-12-12T02:10:48.228Z,7.00
2022-12-12T02:13:28.247Z,7.73
2022-12-12T02:16:22.117Z,8.53
2022-12-12T02:18:54.743Z,8.07
2022-12-12T02:21:54.643Z,8.02
2022-12-12T02:24:39.477Z,8.03
2022-12-12T02:27:28.772Z,7.27
2022-12-12T02:30:17.621Z,8.23
2022-12-12T02:33:15.119Z,8.30
2022-12-12T02:35:56.108Z,8.07
2022-12-12T02:38:30.625Z,7.60
2022-12-12T02:41:23.588Z,8.13
2022-12-12T02:44:12.343Z,8.10
2022-12-12T02:47:04.080Z,8.40
2022-12-12T02:49:45.353Z,6.83
2022-12-12T02:52:12.781Z,7.70
2022-12-12T02:54:39.780Z,7.53
2022-12-12T02:57:18.320Z,6.80
2022-12-12T02:59:58.884Z,6.97
2022-12-12T03:02:34.713Z,7.37
2022-12-12T03:05:49.689Z,7.00
2022-12-12T03:08:40.911Z,6.77
2022-12-12T03:11:14.556Z,6.77
2022-12-12T03:13:58.569Z,6.95
2022-12-12T03:16:30.024Z,6.63
2022-12-12T03:19:26.564Z,6.40
2022-12-12T03:21:56.776Z,7.83
2022-12-12T03:24:34.821Z,6.27
2022-12-12T03:27:39.203Z,6.10
2022-12-12T03:30:11.436Z,6.57
2022-12-12T03:33:06.568Z,7.33
2022-12-12T03:35:42.627Z,7.63
2022-12-12T03:38:22.079Z,6.87
2022-12-12T03:40:56.409Z,6.93
2022-12-12T03:43:37.473Z,6.73
2022-12-12T03:46:16.987Z,6.33
2022-12-12T03:48:56.212Z,6.63
2022-12-12T03:51:38.985Z,7.27
2022-12-12T03:54:08.237Z,6.97
2022-12-12T03:56:43.179Z,7.17
2022-12-12T03:59:14.442Z,7.33
2022-12-12T04:01:49.352Z,7.53
2022-12-12T04:04:27.423Z,7.03
2022-12-12T04:07:00.184Z,7.57
2022-12-12T04:09:45.957Z,6.57
2022-12-12T04:12:57.240Z,7.47
2022-12-12T04:15:34.749Z,7.90
2022-12-12T04:18:19.856Z,7.97
2022-12-12T04:21:39.712Z,7.70
2022-12-12T04:24:20.115Z,6.87
2022-12-12T04:27:02.402Z,6.97
2022-12-12T04:29:40.433Z,7.50
2022-12-12T04:32:16.704Z,7.97
2022-12-12T04:34:51.282Z,7.60
2022-12-12T04:37:22.451Z,8.13
2022-12-12T04:39:51.214Z,8.33
2022-12-12T04:42:22.439Z,7.83
2022-12-12T04:44:52.319Z,8.50
2022-12-12T04:47:20.492Z,8.73
2022-12-12T04:49:49.976Z,8.27
2022-12-12T04:52:20.131Z,8.23
2022-12-12T04:55:03.052Z,8.00
2022-12-12T04:57:35.142Z,7.80
2022-12-12T05:00:01.920Z,8.63
2022-12-12T05:02:43.895Z,7.73
2022-12-12T05:05:21.881Z,7.63
2022-12-12T05:08:11.146Z,8.53
2022-12-12T05:10:46.289Z,7.07
2022-12-12T05:13:40.928Z,6.30
2022-12-12T05:16:25.609Z,7.23
2022-12-12T05:18:52.408Z,8.43
2022-12-12T05:21:19.146Z,8.20
2022-12-12T05:23:46.084Z,8.83
2022-12-12T05:26:28.081Z,8.73
2022-12-12T05:28:55.191Z,8.90
2022-12-12T05:31:22.609Z,8.03
2022-12-12T05:33:50.498Z,8.77
2022-12-12T05:36:17.504Z,7.10
2022-12-12T05:38:44.270Z,7.47
2022-12-12T05:41:11.613Z,8.07
2022-12-12T05:43:38.624Z,9.20
2022-12-12T05:46:06.540Z,7.83
2022-12-12T05:48:34.141Z,8.17
2022-12-12T05:51:02.581Z,7.87
2022-12-12T05:53:30.617Z,8.07
2022-12-12T05:55:57.396Z,7.83
2022-12-12T05:58:24.146Z,7.53
2022-12-12T06:00:51.808Z,7.37
2022-12-12T06:03:19.298Z,8.20
2022-12-12T06:05:46.297Z,7.67
2022-12-12T06:08:13.996Z,7.60
2022-12-12T06:10:40.763Z,8.17
2022-12-12T06:13:07.536Z,8.20
2022-12-12T06:15:34.419Z,7.33
2022-12-12T06:18:01.225Z,7.10
2022-12-12T06:20:30.422Z,8.13
2022-12-12T06:22:57.245Z,7.30
2022-12-12T06:25:24.234Z,7.77
2022-12-12T06:27:51.308Z,7.93
2022-12-12T06:30:18.136Z,7.57
2022-12-12T06:32:45.103Z,8.03
2022-12-12T06:35:15.253Z,8.50
2022-12-12T06:37:42.543Z,9.07
2022-12-12T06:40:09.929Z,11.97
2022-12-12T06:42:36.646Z,11.53
2022-12-12T06:45:04.150Z,12.90
2022-12-12T06:47:32.122Z,17.40
2022-12-12T06:49:58.926Z,34.17
2022-12-12T06:52:25.737Z,15.00
2022-12-12T06:54:52.600Z,9.37
2022-12-12T06:57:19.315Z,9.30
2022-12-12T06:59:46.126Z,11.13
2022-12-12T07:02:12.955Z,13.37
2022-12-12T07:04:40.022Z,16.93
2022-12-12T07:07:06.896Z,11.10
2022-12-12T07:09:34.097Z,11.20
2022-12-12T07:12:01.080Z,9.17
2022-12-12T07:14:27.915Z,8.50
2022-12-12T07:16:54.974Z,8.13
2022-12-12T07:19:22.720Z,8.67
2022-12-12T07:21:49.714Z,8.90
2022-12-12T07:24:18.021Z,8.93
2022-12-12T07:26:45.138Z,8.90
2022-12-12T07:29:12.375Z,9.00
2022-12-12T07:31:39.389Z,9.60
2022-12-12T07:34:06.280Z,10.13
2022-12-12T07:36:33.331Z,7.73
2022-12-12T07:39:00.176Z,9.40
2022-12-12T07:41:27.149Z,8.97
2022-12-12T07:43:53.922Z,9.20
2022-12-12T07:46:23.551Z,7.93
2022-12-12T07:48:51.798Z,7.77
2022-12-12T07:51:19.590Z,8.20
2022-12-12T07:53:46.798Z,9.23
2022-12-12T07:56:15.570Z,8.83
2022-12-12T07:58:42.767Z,9.77
2022-12-12T08:01:21.918Z,8.70
2022-12-12T08:03:50.761Z,8.97
2022-12-12T08:06:19.346Z,8.83
2022-12-12T08:08:47.464Z,9.43
2022-12-12T08:11:17.050Z,8.50
2022-12-12T08:13:44.284Z,8.77
2022-12-12T08:16:21.485Z,9.30
2022-12-12T08:18:49.733Z,10.40
2022-12-12T08:21:23.239Z,10.73
2022-12-12T08:23:55.336Z,11.53
2022-12-12T08:26:22.743Z,12.00
2022-12-12T08:28:49.585Z,11.93
2022-12-12T08:31:17.632Z,10.90
2022-12-12T08:33:45.341Z,12.07
2022-12-12T08:36:21.081Z,10.73
2022-12-12T08:38:48.253Z,11.20
2022-12-12T08:41:14.998Z,10.80
2022-12-12T08:43:42.712Z,10.77
2022-12-12T08:46:16.788Z,9.73
2022-12-12T08:48:44.828Z,9.73
2022-12-12T08:51:11.878Z,9.57
2022-12-12T08:53:38.893Z,10.03
2022-12-12T08:56:07.213Z,9.30
2022-12-12T08:58:34.008Z,9.17
2022-12-12T09:01:01.332Z,10.03
2022-12-12T09:03:29.774Z,9.70
2022-12-12T09:05:57.047Z,9.47
2022-12-12T09:08:24.415Z,9.20
2022-12-12T09:10:51.361Z,8.57
2022-12-12T09:13:18.276Z,10.50
2022-12-12T09:15:45.248Z,11.17
2022-12-12T09:18:12.297Z,10.90
2022-12-12T09:20:39.530Z,9.93
2022-12-12T09:23:06.340Z,11.43
2022-12-12T09:25:33.183Z,10.40
2022-12-12T09:28:00.132Z,9.73
2022-12-12T09:30:27.625Z,9.97
2022-12-12T09:32:54.363Z,8.80
2022-12-12T09:35:21.264Z,8.87
2022-12-12T09:37:48.262Z,9.90
2022-12-12T09:40:24.929Z,9.50
2022-12-12T09:42:52.130Z,9.40
2022-12-12T09:45:20.342Z,8.50
2022-12-12T09:47:50.657Z,9.40
2022-12-12T09:50:29.776Z,9.23
2022-12-12T09:53:02.932Z,9.47
2022-12-12T09:56:00.670Z,8.57
2022-12-12T09:58:39.729Z,8.60
2022-12-12T10:01:51.481Z,7.75
2022-12-12T10:04:33.501Z,6.90
2022-12-12T10:07:10.180Z,7.50
2022-12-12T10:10:01.336Z,7.17
2022-12-12T10:12:29.390Z,7.53
2022-12-12T10:15:03.166Z,7.27
2022-12-12T10:17:39.114Z,5.75
2022-12-12T10:20:15.736Z,6.95
2022-12-12T10:22:59.202Z,6.20
2022-12-12T10:25:35.096Z,5.38
2022-12-12T10:28:11.270Z,5.80
2022-12-12T10:31:12.380Z,6.00
2022-12-12T10:34:16.574Z,5.20
2022-12-12T10:37:18.279Z,5.30
2022-12-12T10:40:04.820Z,5.40
2022-12-12T10:43:10.342Z,5.78
2022-12-12T10:46:25.124Z,5.65
2022-12-12T10:48:52.248Z,4.97
2022-12-12T10:51:23.837Z,5.63
2022-12-12T10:53:51.093Z,5.07
2022-12-12T10:56:22.427Z,4.72
2022-12-12T10:58:55.513Z,5.13
2022-12-12T11:04:22.676Z,3.97
2022-12-12T11:06:56.248Z,4.38
2022-12-12T11:09:28.930Z,4.30
2022-12-12T11:12:15.152Z,4.22
2022-12-12T11:15:06.817Z,3.72
2022-12-12T11:17:34.805Z,3.15
2022-12-12T11:20:05.995Z,3.47
2022-12-12T11:22:33.464Z,3.20
2022-12-12T11:25:00.720Z,3.70
2022-12-12T11:27:35.260Z,3.17
2022-12-12T11:30:08.024Z,4.00
2022-12-12T11:32:40.929Z,3.92
2022-12-12T11:35:23.384Z,3.10
2022-12-12T11:37:53.999Z,2.95
2022-12-12T11:40:31.819Z,3.70
2022-12-12T11:43:19.404Z,2.92
2022-12-12T11:46:26.644Z,3.38
2022-12-12T11:48:53.488Z,3.05
2022-12-12T11:51:44.281Z,3.10
2022-12-12T11:54:14.114Z,3.83
2022-12-12T11:57:02.377Z,3.05
2022-12-12T12:00:03.940Z,2.63
2022-12-12T12:03:02.577Z,2.95
2022-12-12T12:05:55.652Z,3.47
2022-12-12T12:08:40.066Z,3.10
2022-12-12T12:11:20.404Z,3.10
2022-12-12T12:14:24.949Z,3.35
2022-12-12T12:17:03.168Z,3.50
2022-12-12T12:19:43.670Z,3.15
2022-12-12T12:22:39.045Z,3.85
2022-12-12T12:25:27.978Z,3.50
2022-12-12T12:28:16.323Z,2.92
2022-12-12T12:30:49.267Z,3.22
2022-12-12T12:33:52.483Z,2.75
2022-12-12T12:36:27.008Z,2.65
2022-12-12T12:39:02.280Z,2.60
2022-12-12T12:41:42.336Z,3.13
2022-12-12T12:44:16.804Z,3.53
2022-12-12T12:46:54.039Z,3.40
2022-12-12T12:49:39.634Z,2.80
2022-12-12T12:52:11.686Z,2.90
2022-12-12T12:54:45.632Z,2.80
2022-12-12T12:57:21.918Z,2.75
2022-12-12T12:59:52.642Z,2.75
2022-12-12T13:02:27.447Z,2.70
2022-12-12T13:05:19.000Z,2.60
2022-12-12T13:08:08.832Z,2.67
2022-12-12T13:10:40.130Z,3.40
2022-12-12T13:13:23.732Z,3.15
2022-12-12T13:18:20.937Z,3.03
2022-12-12T13:20:47.708Z,2.67
2022-12-12T13:23:28.472Z,3.20
2022-12-12T13:26:12.604Z,2.78
2022-12-12T13:28:45.726Z,3.08
2022-12-12T13:31:27.838Z,3.97
2022-12-12T13:34:15.940Z,3.67
2022-12-12T13:36:47.110Z,3.30
2022-12-12T13:39:30.832Z,3.45
2022-12-12T13:42:06.361Z,2.80
2022-12-12T13:44:42.601Z,3.08
2022-12-12T13:47:22.974Z,3.65
2022-12-12T13:49:49.942Z,3.85
2022-12-12T13:52:27.543Z,4.38
2022-12-12T13:55:26.772Z,3.95
2022-12-12T13:58:05.916Z,5.07
2022-12-12T14:00:35.317Z,4.10
2022-12-12T14:03:07.634Z,4.35
2022-12-12T14:05:42.388Z,3.97
2022-12-12T14:08:12.084Z,4.25
2022-12-12T14:10:59.946Z,3.60
2022-12-12T14:13:31.550Z,3.10
2022-12-12T14:16:18.529Z,3.95
2022-12-12T14:18:51.595Z,3.75
2022-12-12T14:21:22.149Z,3.20
2022-12-12T14:23:51.748Z,4.15
2022-12-12T14:26:27.831Z,3.97
2022-12-12T14:29:16.642Z,4.35
2022-12-12T14:32:00.872Z,4.20
2022-12-12T14:34:51.782Z,3.60
2022-12-12T14:37:51.238Z,4.73
2022-12-12T14:40:23.031Z,4.00
2022-12-12T14:43:19.480Z,4.45
2022-12-12T14:45:51.277Z,4.78
2022-12-12T14:48:28.234Z,3.58
2022-12-12T14:51:01.197Z,3.90
2022-12-12T14:53:31.611Z,4.15
2022-12-12T14:56:02.783Z,4.05
2022-12-12T14:58:35.262Z,3.73
2022-12-12T15:01:06.083Z,3.50
2022-12-12T15:03:49.858Z,4.30
2022-12-12T15:06:33.882Z,3.90
2022-12-12T15:09:22.950Z,3.73
2022-12-12T15:11:50.875Z,4.50
2022-12-12T15:14:26.244Z,4.40
2022-12-12T15:17:12.212Z,4.50
2022-12-12T15:19:47.629Z,4.60
2022-12-12T15:22:24.938Z,6.53
2022-12-12T15:24:53.271Z,12.80
2022-12-12T15:27:39.991Z,14.30
2022-12-12T15:30:22.849Z,10.43
2022-12-12T15:32:53.067Z,8.70
2022-12-12T15:35:22.485Z,5.97
2022-12-12T15:37:58.983Z,5.17
2022-12-12T15:40:30.204Z,3.97
2022-12-12T15:43:00.181Z,3.93
2022-12-12T15:45:42.508Z,4.20
2022-12-12T15:48:17.865Z,4.60
2022-12-12T15:50:44.552Z,4.80
2022-12-12T15:53:19.841Z,10.60
2022-12-12T15:56:02.530Z,10.10
2022-12-12T15:58:34.624Z,14.85
2022-12-12T16:01:03.519Z,16.80
2022-12-12T16:03:30.361Z,14.63
2022-12-12T16:06:02.988Z,11.87
2022-12-12T16:08:33.442Z,9.98
2022-12-12T16:11:03.778Z,9.87
2022-12-12T16:13:41.145Z,11.03
2022-12-12T16:16:42.668Z,11.30
2022-12-12T16:19:34.477Z,8.10
2022-12-12T16:22:21.868Z,9.03
2022-12-12T16:25:09.034Z,8.90
2022-12-12T16:27:36.106Z,7.20
2022-12-12T16:30:03.581Z,7.20
2022-12-12T16:32:31.477Z,6.93
2022-12-12T16:34:58.226Z,8.10
2022-12-12T16:37:25.028Z,9.13
2022-12-12T16:39:53.566Z,8.53
2022-12-12T16:42:21.918Z,8.67
2022-12-12T16:44:49.726Z,8.30
2022-12-12T16:47:19.349Z,8.20
2022-12-12T16:49:47.074Z,6.83
2022-12-12T16:52:18.818Z,7.50
2022-12-12T16:54:52.851Z,7.27
2022-12-12T16:57:21.772Z,6.53
2022-12-12T16:59:48.940Z,6.00
2022-12-12T17:02:23.941Z,6.23
2022-12-12T17:04:51.715Z,6.17
2022-12-12T17:07:18.509Z,6.87
2022-12-12T17:09:45.350Z,6.43
2022-12-12T17:12:13.120Z,6.93
2022-12-12T17:14:40.243Z,6.50
2022-12-12T17:17:07.052Z,6.67
2022-12-12T17:19:34.396Z,6.83
2022-12-12T17:22:01.602Z,6.50
2022-12-12T17:24:29.113Z,5.37
2022-12-12T17:26:56.226Z,11.70
2022-12-12T17:29:23.661Z,52.23
2022-12-12T17:31:50.607Z,55.13
2022-12-12T17:34:17.658Z,7.93
2022-12-12T17:36:44.448Z,4.90
2022-12-12T17:39:11.303Z,5.03
2022-12-12T17:41:40.672Z,4.53
2022-12-12T17:44:07.449Z,4.60
2022-12-12T17:46:34.256Z,5.50
2022-12-12T17:49:01.989Z,6.10
2022-12-12T17:51:29.703Z,7.63
2022-12-12T17:53:56.645Z,6.83
2022-12-12T17:56:25.232Z,7.27
2022-12-12T17:58:54.224Z,7.63
2022-12-12T18:01:31.356Z,5.87
2022-12-12T18:03:59.941Z,7.50
2022-12-12T18:06:27.304Z,9.00
2022-12-12T18:08:54.561Z,8.53
2022-12-12T18:11:26.661Z,8.20
2022-12-12T18:13:57.385Z,8.48
2022-12-12T18:16:24.859Z,10.00
2022-12-12T18:18:52.645Z,8.80
2022-12-12T18:21:58.657Z,9.20
2022-12-12T18:24:09.916Z,10.00
2022-12-12T18:26:37.006Z,10.03
2022-12-12T18:29:06.357Z,10.03
2022-12-12T18:31:33.960Z,10.03
2022-12-12T18:34:01.264Z,10.23
2022-12-12T18:36:29.961Z,6.83
2022-12-12T18:38:58.777Z,5.77
2022-12-12T18:41:27.277Z,7.20
2022-12-12T18:43:54.861Z,9.30
2022-12-12T18:46:24.570Z,9.23
2022-12-12T18:48:51.378Z,8.50
2022-12-12T18:51:22.307Z,8.70
2022-12-12T18:53:50.427Z,7.83
2022-12-12T18:56:24.009Z,7.43
2022-12-12T18:58:53.391Z,8.03
2022-12-12T19:01:28.681Z,7.47
2022-12-12T19:03:57.335Z,8.27
2022-12-12T19:06:31.592Z,7.77
2022-12-12T19:08:58.681Z,7.50
2022-12-12T19:11:25.526Z,8.10
2022-12-12T19:13:52.481Z,7.13
2022-12-12T19:16:20.300Z,7.27
2022-12-12T19:18:47.626Z,7.27
2022-12-12T19:21:20.154Z,6.83
2022-12-12T19:23:47.807Z,10.32
2022-12-12T19:26:26.658Z,11.60
2022-12-12T19:29:03.421Z,10.17
2022-12-12T19:31:33.399Z,9.00
2022-12-12T19:34:02.845Z,8.30
2022-12-12T19:36:30.307Z,7.33
2022-12-12T19:38:58.685Z,7.43
2022-12-12T19:41:26.258Z,6.97
2022-12-12T19:43:54.125Z,7.47
2022-12-12T19:46:26.054Z,7.87
2022-12-12T19:48:57.882Z,8.07
2022-12-12T19:51:27.039Z,9.00
2022-12-12T19:53:56.664Z,8.83
2022-12-12T19:56:33.507Z,9.63
2022-12-12T19:59:01.274Z,9.63
2022-12-12T20:01:31.436Z,9.53
2022-12-12T20:04:05.343Z,9.07
2022-12-12T20:06:41.000Z,9.77
2022-12-12T20:09:09.186Z,9.13
2022-12-12T20:11:37.268Z,8.57
2022-12-12T20:14:04.111Z,8.83
2022-12-12T20:16:30.862Z,7.47
2022-12-12T20:18:58.128Z,7.90
2022-12-12T20:21:59.922Z,7.30
2022-12-12T20:24:17.345Z,7.10
2022-12-12T20:26:45.512Z,6.93
2022-12-12T20:29:14.333Z,7.70
2022-12-12T20:31:45.280Z,7.27
2022-12-12T20:34:13.673Z,8.37
2022-12-12T20:36:41.269Z,8.83
2022-12-12T20:39:12.022Z,7.57
2022-12-12T20:41:40.471Z,7.63
2022-12-12T20:44:08.808Z,8.63
2022-12-12T20:46:38.163Z,8.73
2022-12-12T20:49:09.331Z,9.93
2022-12-12T20:54:24.715Z,8.50
2022-12-12T20:56:53.304Z,8.90
2022-12-12T20:59:20.139Z,8.07
2022-12-12T21:01:47.462Z,7.80
2022-12-12T21:04:15.074Z,8.20
2022-12-12T21:06:47.833Z,8.17
2022-12-12T21:11:52.185Z,7.73
2022-12-12T21:14:19.345Z,7.97
2022-12-12T21:16:46.334Z,9.47
2022-12-12T21:19:14.211Z,9.77
2022-12-12T21:21:43.141Z,9.20
2022-12-12T21:24:14.444Z,9.23
2022-12-12T21:26:41.445Z,8.50
2022-12-12T21:29:08.310Z,8.60
2022-12-12T21:31:37.494Z,10.00
2022-12-12T21:34:07.627Z,11.13
2022-12-12T21:36:34.564Z,9.57
2022-12-12T21:39:06.177Z,9.03
2022-12-12T21:41:34.856Z,9.70
2022-12-12T21:44:01.692Z,8.73
2022-12-12T21:46:29.944Z,7.87
2022-12-12T21:49:16.515Z,9.07
2022-12-12T21:51:44.186Z,8.30
2022-12-12T21:54:14.402Z,8.37
2022-12-12T21:56:42.227Z,6.20
2022-12-12T21:59:10.367Z,5.50
2022-12-12T22:01:37.244Z,6.47
2022-12-12T22:04:04.339Z,5.97
2022-12-12T22:06:33.409Z,5.53
2022-12-12T22:09:01.387Z,5.40
2022-12-12T22:11:40.578Z,5.93
2022-12-12T22:14:17.573Z,7.10
2022-12-12T22:16:44.702Z,7.67
2022-12-12T22:19:14.414Z,6.77
2022-12-12T22:21:41.406Z,6.57
2022-12-12T22:24:08.468Z,6.17
2022-12-12T22:26:38.111Z,6.00
2022-12-12T22:29:07.768Z,5.97
2022-12-12T22:31:37.469Z,6.63
2022-12-12T22:34:11.773Z,7.53
2022-12-12T22:36:39.712Z,8.60
2022-12-12T22:39:08.548Z,8.00
2022-12-12T22:41:35.273Z,7.87
2022-12-12T22:44:04.422Z,10.63
2022-12-12T22:46:31.529Z,9.43
2022-12-12T22:49:00.436Z,10.33
2022-12-12T22:51:32.749Z,10.63
2022-12-12T22:54:02.406Z,10.73
2022-12-12T22:56:30.798Z,10.03
2022-12-12T22:58:57.944Z,10.03
2022-12-12T23:01:25.045Z,11.00
2022-12-12T23:03:52.581Z,10.63
2022-12-12T23:06:29.909Z,12.77
2022-12-12T23:09:01.788Z,12.53
2022-12-12T23:11:30.520Z,10.75
2022-12-12T23:14:19.381Z,10.40
2022-12-12T23:16:46.350Z,10.80
2022-12-12T23:19:15.612Z,10.53
2022-12-12T23:21:42.734Z,9.53
2022-12-12T23:24:09.690Z,10.87
2022-12-12T23:26:37.082Z,10.53
2022-12-12T23:29:08.028Z,10.47
2022-12-12T23:31:37.326Z,10.20
2022-12-12T23:34:12.876Z,10.77
2022-12-12T23:36:40.107Z,10.73
2022-12-12T23:39:08.176Z,11.47
2022-12-12T23:41:36.548Z,10.97
2022-12-12T23:44:04.042Z,8.17
2022-12-12T23:46:32.182Z,6.23
2022-12-12T23:49:01.450Z,6.90
2022-12-12T23:51:31.041Z,8.73
2022-12-12T23:53:59.821Z,7.20
2022-12-12T23:56:27.160Z,9.33
2022-12-12T23:58:55.429Z,8.40
